sensor_id;sensor_type;location;lat;lon;timestamp;P1;durP1;ratioP1;P2;durP2;ratioP2
16320;SDS011;8269;50.990;4.494;2022-11-20T00:00:56;30.90;;;24.30;;
16320;SDS011;8269;50.990;4.494;2022-11-20T00:03:22;30.50;;;25.00;;
16320;SDS011;8269;50.990;4.494;2022-11-20T00:05:48;30.50;;;25.10;;
16320;SDS011;8269;50.990;4.494;2022-11-20T00:08:13;30.93;;;24.27;;
16320;SDS011;8269;50.990;4.494;2022-11-20T00:10:39;31.10;;;24.67;;
16320;SDS011;8269;50.990;4.494;2022-11-20T00:13:05;31.67;;;24.03;;
16320;SDS011;8269;50.990;4.494;2022-11-20T00:15:32;32.43;;;24.33;;
16320;SDS011;8269;50.990;4.494;2022-11-20T00:17:58;31.47;;;24.77;;
16320;SDS011;8269;50.990;4.494;2022-11-20T00:20:23;31.83;;;24.73;;
16320;SDS011;8269;50.990;4.494;2022-11-20T00:22:49;32.13;;;25.67;;
16320;SDS011;8269;50.990;4.494;2022-11-20T00:25:15;32.33;;;24.47;;
16320;SDS011;8269;50.990;4.494;2022-11-20T00:27:41;32.80;;;25.17;;
16320;SDS011;8269;50.990;4.494;2022-11-20T00:30:07;31.20;;;24.30;;
16320;SDS011;8269;50.990;4.494;2022-11-20T00:32:33;32.83;;;26.43;;
16320;SDS011;8269;50.990;4.494;2022-11-20T00:34:58;30.20;;;24.40;;
16320;SDS011;8269;50.990;4.494;2022-11-20T00:37:24;33.43;;;25.60;;
16320;SDS011;8269;50.990;4.494;2022-11-20T00:39:49;33.53;;;24.43;;
16320;SDS011;8269;50.990;4.494;2022-11-20T00:42:15;30.50;;;23.37;;
16320;SDS011;8269;50.990;4.494;2022-11-20T00:44:40;31.47;;;25.57;;
16320;SDS011;8269;50.990;4.494;2022-11-20T00:47:06;30.67;;;24.53;;
16320;SDS011;8269;50.990;4.494;2022-11-20T00:49:32;33.53;;;25.30;;
16320;SDS011;8269;50.990;4.494;2022-11-20T00:51:57;31.37;;;24.80;;
16320;SDS011;8269;50.990;4.494;2022-11-20T00:54:23;32.60;;;24.80;;
16320;SDS011;8269;50.990;4.494;2022-11-20T00:56:48;31.87;;;23.90;;
16320;SDS011;8269;50.990;4.494;2022-11-20T00:59:14;33.07;;;25.07;;
16320;SDS011;8269;50.990;4.494;2022-11-20T01:01:39;32.80;;;25.43;;
16320;SDS011;8269;50.990;4.494;2022-11-20T01:04:05;31.73;;;25.03;;
16320;SDS011;8269;50.990;4.494;2022-11-20T01:06:32;31.93;;;25.20;;
16320;SDS011;8269;50.990;4.494;2022-11-20T01:09:00;33.70;;;25.13;;
16320;SDS011;8269;50.990;4.494;2022-11-20T01:11:40;32.10;;;25.27;;
16320;SDS011;8269;50.990;4.494;2022-11-20T01:14:13;36.80;;;26.27;;
16320;SDS011;8269;50.990;4.494;2022-11-20T01:16:45;33.90;;;24.70;;
16320;SDS011;8269;50.990;4.494;2022-11-20T01:19:17;32.67;;;24.57;;
16320;SDS011;8269;50.990;4.494;2022-11-20T01:21:45;33.00;;;24.40;;
16320;SDS011;8269;50.990;4.494;2022-11-20T01:24:14;34.63;;;25.30;;
16320;SDS011;8269;50.990;4.494;2022-11-20T01:26:42;39.73;;;26.13;;
16320;SDS011;8269;50.990;4.494;2022-11-20T01:29:12;37.53;;;26.20;;
16320;SDS011;8269;50.990;4.494;2022-11-20T01:31:43;36.53;;;26.57;;
16320;SDS011;8269;50.990;4.494;2022-11-20T01:34:09;36.73;;;26.40;;
16320;SDS011;8269;50.990;4.494;2022-11-20T01:36:38;36.17;;;25.50;;
16320;SDS011;8269;50.990;4.494;2022-11-20T01:39:06;34.30;;;27.07;;
16320;SDS011;8269;50.990;4.494;2022-11-20T01:41:35;35.50;;;26.90;;
16320;SDS011;8269;50.990;4.494;2022-11-20T01:44:20;33.67;;;25.60;;
16320;SDS011;8269;50.990;4.494;2022-11-20T01:46:58;36.00;;;26.53;;
16320;SDS011;8269;50.990;4.494;2022-11-20T01:49:32;39.77;;;27.37;;
16320;SDS011;8269;50.990;4.494;2022-11-20T01:52:04;34.63;;;27.40;;
16320;SDS011;8269;50.990;4.494;2022-11-20T01:54:38;38.23;;;27.40;;
16320;SDS011;8269;50.990;4.494;2022-11-20T01:57:08;40.07;;;27.47;;
16320;SDS011;8269;50.990;4.494;2022-11-20T01:59:40;40.00;;;29.17;;
16320;SDS011;8269;50.990;4.494;2022-11-20T02:02:12;42.93;;;28.23;;
16320;SDS011;8269;50.990;4.494;2022-11-20T02:04:38;39.70;;;27.77;;
16320;SDS011;8269;50.990;4.494;2022-11-20T02:07:03;39.30;;;28.40;;
16320;SDS011;8269;50.990;4.494;2022-11-20T02:09:30;38.60;;;26.80;;
16320;SDS011;8269;50.990;4.494;2022-11-20T02:11:56;39.17;;;28.63;;
16320;SDS011;8269;50.990;4.494;2022-11-20T02:14:23;40.23;;;29.10;;
16320;SDS011;8269;50.990;4.494;2022-11-20T02:16:49;40.67;;;28.07;;
16320;SDS011;8269;50.990;4.494;2022-11-20T02:19:22;45.27;;;29.40;;
16320;SDS011;8269;50.990;4.494;2022-11-20T02:24:23;41.77;;;29.30;;
16320;SDS011;8269;50.990;4.494;2022-11-20T02:26:53;43.43;;;30.17;;
16320;SDS011;8269;50.990;4.494;2022-11-20T02:31:52;48.67;;;30.87;;
16320;SDS011;8269;50.990;4.494;2022-11-20T02:34:20;43.33;;;30.63;;
16320;SDS011;8269;50.990;4.494;2022-11-20T02:36:45;44.40;;;31.20;;
16320;SDS011;8269;50.990;4.494;2022-11-20T02:39:13;44.17;;;31.27;;
16320;SDS011;8269;50.990;4.494;2022-11-20T02:41:41;45.47;;;31.00;;
16320;SDS011;8269;50.990;4.494;2022-11-20T02:44:07;45.30;;;32.47;;
16320;SDS011;8269;50.990;4.494;2022-11-20T02:46:33;46.90;;;32.17;;
16320;SDS011;8269;50.990;4.494;2022-11-20T02:49:00;52.53;;;33.87;;
16320;SDS011;8269;50.990;4.494;2022-11-20T02:51:26;47.00;;;32.30;;
16320;SDS011;8269;50.990;4.494;2022-11-20T02:53:52;46.77;;;33.20;;
16320;SDS011;8269;50.990;4.494;2022-11-20T02:56:18;46.20;;;32.43;;
16320;SDS011;8269;50.990;4.494;2022-11-20T02:58:43;50.63;;;33.23;;
16320;SDS011;8269;50.990;4.494;2022-11-20T03:01:09;56.83;;;35.97;;
16320;SDS011;8269;50.990;4.494;2022-11-20T03:03:34;53.33;;;34.57;;
16320;SDS011;8269;50.990;4.494;2022-11-20T03:06:00;54.60;;;35.70;;
16320;SDS011;8269;50.990;4.494;2022-11-20T03:08:26;49.27;;;33.93;;
16320;SDS011;8269;50.990;4.494;2022-11-20T03:10:51;51.80;;;34.70;;
16320;SDS011;8269;50.990;4.494;2022-11-20T03:13:17;51.80;;;33.13;;
16320;SDS011;8269;50.990;4.494;2022-11-20T03:15:43;57.37;;;35.93;;
16320;SDS011;8269;50.990;4.494;2022-11-20T03:18:08;54.40;;;36.27;;
16320;SDS011;8269;50.990;4.494;2022-11-20T03:20:34;53.87;;;35.17;;
16320;SDS011;8269;50.990;4.494;2022-11-20T03:23:00;52.57;;;36.70;;
16320;SDS011;8269;50.990;4.494;2022-11-20T03:25:26;53.90;;;35.20;;
16320;SDS011;8269;50.990;4.494;2022-11-20T03:27:51;52.43;;;33.87;;
16320;SDS011;8269;50.990;4.494;2022-11-20T03:30:17;46.83;;;30.80;;
16320;SDS011;8269;50.990;4.494;2022-11-20T03:32:43;51.60;;;32.90;;
16320;SDS011;8269;50.990;4.494;2022-11-20T03:35:09;53.07;;;32.13;;
16320;SDS011;8269;50.990;4.494;2022-11-20T03:37:34;48.87;;;32.57;;
16320;SDS011;8269;50.990;4.494;2022-11-20T03:40:00;48.53;;;31.27;;
16320;SDS011;8269;50.990;4.494;2022-11-20T03:42:26;52.03;;;33.80;;
16320;SDS011;8269;50.990;4.494;2022-11-20T03:45:10;53.43;;;34.77;;
16320;SDS011;8269;50.990;4.494;2022-11-20T03:47:35;56.43;;;33.70;;
16320;SDS011;8269;50.990;4.494;2022-11-20T03:50:01;56.70;;;34.43;;
16320;SDS011;8269;50.990;4.494;2022-11-20T03:52:28;54.03;;;32.23;;
16320;SDS011;8269;50.990;4.494;2022-11-20T03:54:53;55.90;;;36.00;;
16320;SDS011;8269;50.990;4.494;2022-11-20T03:57:19;62.00;;;36.07;;
16320;SDS011;8269;50.990;4.494;2022-11-20T03:59:44;59.37;;;36.43;;
16320;SDS011;8269;50.990;4.494;2022-11-20T04:02:10;54.33;;;35.37;;
16320;SDS011;8269;50.990;4.494;2022-11-20T04:04:36;58.77;;;35.73;;
16320;SDS011;8269;50.990;4.494;2022-11-20T04:07:01;62.63;;;35.77;;
16320;SDS011;8269;50.990;4.494;2022-11-20T04:09:27;59.47;;;35.77;;
16320;SDS011;8269;50.990;4.494;2022-11-20T04:11:53;54.87;;;34.30;;
16320;SDS011;8269;50.990;4.494;2022-11-20T04:14:19;62.13;;;36.07;;
16320;SDS011;8269;50.990;4.494;2022-11-20T04:16:44;58.90;;;34.57;;
16320;SDS011;8269;50.990;4.494;2022-11-20T04:19:10;60.50;;;35.73;;
16320;SDS011;8269;50.990;4.494;2022-11-20T04:21:38;61.00;;;35.20;;
16320;SDS011;8269;50.990;4.494;2022-11-20T04:24:03;60.67;;;35.77;;
16320;SDS011;8269;50.990;4.494;2022-11-20T04:26:29;59.93;;;34.53;;
16320;SDS011;8269;50.990;4.494;2022-11-20T04:28:56;55.67;;;35.53;;
16320;SDS011;8269;50.990;4.494;2022-11-20T04:31:24;59.60;;;35.93;;
16320;SDS011;8269;50.990;4.494;2022-11-20T04:33:52;57.70;;;35.67;;
16320;SDS011;8269;50.990;4.494;2022-11-20T04:36:22;56.40;;;35.87;;
16320;SDS011;8269;50.990;4.494;2022-11-20T04:38:52;54.00;;;34.53;;
16320;SDS011;8269;50.990;4.494;2022-11-20T04:41:22;51.20;;;32.57;;
16320;SDS011;8269;50.990;4.494;2022-11-20T04:43:50;56.00;;;35.63;;
16320;SDS011;8269;50.990;4.494;2022-11-20T04:46:24;57.40;;;34.50;;
16320;SDS011;8269;50.990;4.494;2022-11-20T04:48:50;57.37;;;33.63;;
16320;SDS011;8269;50.990;4.494;2022-11-20T04:51:16;57.77;;;34.27;;
16320;SDS011;8269;50.990;4.494;2022-11-20T04:53:42;58.13;;;35.97;;
16320;SDS011;8269;50.990;4.494;2022-11-20T04:56:08;57.97;;;35.57;;
16320;SDS011;8269;50.990;4.494;2022-11-20T04:58:35;56.07;;;35.13;;
16320;SDS011;8269;50.990;4.494;2022-11-20T05:01:23;56.17;;;36.03;;
16320;SDS011;8269;50.990;4.494;2022-11-20T05:03:48;61.90;;;35.67;;
16320;SDS011;8269;50.990;4.494;2022-11-20T05:06:16;53.17;;;34.47;;
16320;SDS011;8269;50.990;4.494;2022-11-20T05:08:43;52.50;;;33.97;;
16320;SDS011;8269;50.990;4.494;2022-11-20T05:11:15;58.83;;;36.00;;
16320;SDS011;8269;50.990;4.494;2022-11-20T05:13:43;61.90;;;37.23;;
16320;SDS011;8269;50.990;4.494;2022-11-20T05:16:10;57.43;;;37.27;;
16320;SDS011;8269;50.990;4.494;2022-11-20T05:18:37;59.20;;;37.53;;
16320;SDS011;8269;50.990;4.494;2022-11-20T05:21:03;61.00;;;37.60;;
16320;SDS011;8269;50.990;4.494;2022-11-20T05:23:30;59.27;;;37.83;;
16320;SDS011;8269;50.990;4.494;2022-11-20T05:25:57;55.23;;;35.97;;
16320;SDS011;8269;50.990;4.494;2022-11-20T05:28:23;55.57;;;35.97;;
16320;SDS011;8269;50.990;4.494;2022-11-20T05:30:49;59.37;;;36.13;;
16320;SDS011;8269;50.990;4.494;2022-11-20T05:33:15;56.57;;;37.17;;
16320;SDS011;8269;50.990;4.494;2022-11-20T05:35:41;65.57;;;38.23;;
16320;SDS011;8269;50.990;4.494;2022-11-20T05:38:07;59.87;;;36.60;;
16320;SDS011;8269;50.990;4.494;2022-11-20T05:40:33;57.13;;;36.70;;
16320;SDS011;8269;50.990;4.494;2022-11-20T05:42:59;55.87;;;36.60;;
16320;SDS011;8269;50.990;4.494;2022-11-20T05:45:25;56.73;;;35.03;;
16320;SDS011;8269;50.990;4.494;2022-11-20T05:47:50;51.47;;;33.93;;
16320;SDS011;8269;50.990;4.494;2022-11-20T05:50:16;55.83;;;35.00;;
16320;SDS011;8269;50.990;4.494;2022-11-20T05:52:41;60.13;;;36.13;;
16320;SDS011;8269;50.990;4.494;2022-11-20T05:55:07;55.13;;;36.43;;
16320;SDS011;8269;50.990;4.494;2022-11-20T05:57:33;53.97;;;35.20;;
16320;SDS011;8269;50.990;4.494;2022-11-20T05:59:59;53.63;;;35.43;;
16320;SDS011;8269;50.990;4.494;2022-11-20T06:02:24;57.43;;;36.17;;
16320;SDS011;8269;50.990;4.494;2022-11-20T06:04:50;60.00;;;36.50;;
16320;SDS011;8269;50.990;4.494;2022-11-20T06:07:15;61.73;;;37.10;;
16320;SDS011;8269;50.990;4.494;2022-11-20T06:09:41;63.33;;;38.33;;
16320;SDS011;8269;50.990;4.494;2022-11-20T06:12:07;59.83;;;37.50;;
16320;SDS011;8269;50.990;4.494;2022-11-20T06:14:33;63.47;;;37.13;;
16320;SDS011;8269;50.990;4.494;2022-11-20T06:16:59;59.13;;;37.70;;
16320;SDS011;8269;50.990;4.494;2022-11-20T06:19:25;58.30;;;35.40;;
16320;SDS011;8269;50.990;4.494;2022-11-20T06:21:50;58.47;;;37.47;;
16320;SDS011;8269;50.990;4.494;2022-11-20T06:24:16;56.03;;;35.77;;
16320;SDS011;8269;50.990;4.494;2022-11-20T06:26:42;59.70;;;34.73;;
16320;SDS011;8269;50.990;4.494;2022-11-20T06:29:08;51.43;;;33.60;;
16320;SDS011;8269;50.990;4.494;2022-11-20T06:31:33;53.17;;;35.13;;
16320;SDS011;8269;50.990;4.494;2022-11-20T06:34:02;54.33;;;34.13;;
16320;SDS011;8269;50.990;4.494;2022-11-20T06:36:32;57.27;;;33.80;;
16320;SDS011;8269;50.990;4.494;2022-11-20T06:38:57;54.37;;;33.70;;
16320;SDS011;8269;50.990;4.494;2022-11-20T06:41:24;50.83;;;34.33;;
16320;SDS011;8269;50.990;4.494;2022-11-20T06:43:50;56.20;;;34.33;;
16320;SDS011;8269;50.990;4.494;2022-11-20T06:46:16;54.10;;;33.90;;
16320;SDS011;8269;50.990;4.494;2022-11-20T06:48:44;51.23;;;32.90;;
16320;SDS011;8269;50.990;4.494;2022-11-20T06:51:10;51.63;;;33.63;;
16320;SDS011;8269;50.990;4.494;2022-11-20T06:53:36;55.73;;;34.33;;
16320;SDS011;8269;50.990;4.494;2022-11-20T06:56:02;53.40;;;34.90;;
16320;SDS011;8269;50.990;4.494;2022-11-20T06:58:29;52.20;;;33.07;;
16320;SDS011;8269;50.990;4.494;2022-11-20T07:01:01;51.30;;;33.97;;
16320;SDS011;8269;50.990;4.494;2022-11-20T07:03:37;53.33;;;34.83;;
16320;SDS011;8269;50.990;4.494;2022-11-20T07:06:04;54.43;;;34.27;;
16320;SDS011;8269;50.990;4.494;2022-11-20T07:08:30;53.53;;;34.17;;
16320;SDS011;8269;50.990;4.494;2022-11-20T07:10:57;53.57;;;33.90;;
16320;SDS011;8269;50.990;4.494;2022-11-20T07:13:24;49.37;;;33.33;;
16320;SDS011;8269;50.990;4.494;2022-11-20T07:15:50;52.20;;;34.10;;
16320;SDS011;8269;50.990;4.494;2022-11-20T07:18:16;50.30;;;32.37;;
16320;SDS011;8269;50.990;4.494;2022-11-20T07:20:41;52.93;;;32.47;;
16320;SDS011;8269;50.990;4.494;2022-11-20T07:23:07;54.87;;;32.43;;
16320;SDS011;8269;50.990;4.494;2022-11-20T07:25:32;54.30;;;31.23;;
16320;SDS011;8269;50.990;4.494;2022-11-20T07:27:58;53.20;;;31.07;;
16320;SDS011;8269;50.990;4.494;2022-11-20T07:30:25;52.50;;;31.63;;
16320;SDS011;8269;50.990;4.494;2022-11-20T07:32:52;52.30;;;31.30;;
16320;SDS011;8269;50.990;4.494;2022-11-20T07:35:18;53.87;;;31.37;;
16320;SDS011;8269;50.990;4.494;2022-11-20T07:37:44;56.77;;;34.10;;
16320;SDS011;8269;50.990;4.494;2022-11-20T07:40:10;63.87;;;35.23;;
16320;SDS011;8269;50.990;4.494;2022-11-20T07:42:49;56.17;;;33.33;;
16320;SDS011;8269;50.990;4.494;2022-11-20T07:45:20;65.27;;;35.30;;
16320;SDS011;8269;50.990;4.494;2022-11-20T07:47:47;61.73;;;32.60;;
16320;SDS011;8269;50.990;4.494;2022-11-20T07:50:14;63.47;;;33.97;;
16320;SDS011;8269;50.990;4.494;2022-11-20T07:52:40;59.60;;;33.00;;
16320;SDS011;8269;50.990;4.494;2022-11-20T07:55:06;61.93;;;33.73;;
16320;SDS011;8269;50.990;4.494;2022-11-20T07:57:32;62.43;;;33.10;;
16320;SDS011;8269;50.990;4.494;2022-11-20T07:59:58;65.57;;;34.10;;
16320;SDS011;8269;50.990;4.494;2022-11-20T08:02:24;63.73;;;32.43;;
16320;SDS011;8269;50.990;4.494;2022-11-20T08:04:49;66.43;;;32.80;;
16320;SDS011;8269;50.990;4.494;2022-11-20T08:07:16;64.47;;;32.70;;
16320;SDS011;8269;50.990;4.494;2022-11-20T08:09:42;67.43;;;33.33;;
16320;SDS011;8269;50.990;4.494;2022-11-20T08:12:07;63.30;;;31.87;;
16320;SDS011;8269;50.990;4.494;2022-11-20T08:14:59;72.13;;;32.57;;
16320;SDS011;8269;50.990;4.494;2022-11-20T08:17:25;71.27;;;33.83;;
16320;SDS011;8269;50.990;4.494;2022-11-20T08:19:51;73.83;;;33.93;;
16320;SDS011;8269;50.990;4.494;2022-11-20T08:22:16;74.63;;;34.17;;
16320;SDS011;8269;50.990;4.494;2022-11-20T08:24:42;70.67;;;34.47;;
16320;SDS011;8269;50.990;4.494;2022-11-20T08:27:08;79.80;;;34.97;;
16320;SDS011;8269;50.990;4.494;2022-11-20T08:29:33;79.07;;;33.17;;
16320;SDS011;8269;50.990;4.494;2022-11-20T08:31:59;72.00;;;35.00;;
16320;SDS011;8269;50.990;4.494;2022-11-20T08:34:24;75.10;;;34.80;;
16320;SDS011;8269;50.990;4.494;2022-11-20T08:36:50;76.23;;;35.83;;
16320;SDS011;8269;50.990;4.494;2022-11-20T08:39:16;77.00;;;35.53;;
16320;SDS011;8269;50.990;4.494;2022-11-20T08:41:41;79.73;;;34.83;;
16320;SDS011;8269;50.990;4.494;2022-11-20T08:44:07;78.40;;;35.80;;
16320;SDS011;8269;50.990;4.494;2022-11-20T08:46:34;74.67;;;34.17;;
16320;SDS011;8269;50.990;4.494;2022-11-20T08:49:06;72.83;;;35.00;;
16320;SDS011;8269;50.990;4.494;2022-11-20T08:51:33;81.03;;;37.23;;
16320;SDS011;8269;50.990;4.494;2022-11-20T08:53:59;72.30;;;34.43;;
16320;SDS011;8269;50.990;4.494;2022-11-20T08:56:25;72.43;;;35.20;;
16320;SDS011;8269;50.990;4.494;2022-11-20T08:58:50;82.90;;;36.17;;
16320;SDS011;8269;50.990;4.494;2022-11-20T09:01:17;79.10;;;35.50;;
16320;SDS011;8269;50.990;4.494;2022-11-20T09:03:46;77.07;;;35.57;;
16320;SDS011;8269;50.990;4.494;2022-11-20T09:06:12;84.73;;;36.27;;
16320;SDS011;8269;50.990;4.494;2022-11-20T09:08:39;88.50;;;37.23;;
16320;SDS011;8269;50.990;4.494;2022-11-20T09:11:05;84.60;;;35.87;;
16320;SDS011;8269;50.990;4.494;2022-11-20T09:13:31;81.20;;;36.87;;
16320;SDS011;8269;50.990;4.494;2022-11-20T09:16:01;87.50;;;38.23;;
16320;SDS011;8269;50.990;4.494;2022-11-20T09:18:30;83.13;;;37.60;;
16320;SDS011;8269;50.990;4.494;2022-11-20T09:20:58;93.37;;;39.03;;
16320;SDS011;8269;50.990;4.494;2022-11-20T09:23:24;90.40;;;39.47;;
16320;SDS011;8269;50.990;4.494;2022-11-20T09:25:51;83.10;;;38.40;;
16320;SDS011;8269;50.990;4.494;2022-11-20T09:28:17;76.30;;;36.73;;
16320;SDS011;8269;50.990;4.494;2022-11-20T09:30:43;88.53;;;38.70;;
16320;SDS011;8269;50.990;4.494;2022-11-20T09:33:09;84.80;;;37.43;;
16320;SDS011;8269;50.990;4.494;2022-11-20T09:35:35;82.10;;;37.60;;
16320;SDS011;8269;50.990;4.494;2022-11-20T09:38:06;84.33;;;35.97;;
16320;SDS011;8269;50.990;4.494;2022-11-20T09:40:33;86.60;;;36.23;;
16320;SDS011;8269;50.990;4.494;2022-11-20T09:43:20;82.10;;;37.47;;
16320;SDS011;8269;50.990;4.494;2022-11-20T09:53:39;88.10;;;38.07;;
16320;SDS011;8269;50.990;4.494;2022-11-20T09:56:25;86.63;;;37.20;;
16320;SDS011;8269;50.990;4.494;2022-11-20T09:58:51;82.53;;;37.43;;
16320;SDS011;8269;50.990;4.494;2022-11-20T10:01:20;88.43;;;39.47;;
16320;SDS011;8269;50.990;4.494;2022-11-20T10:06:17;79.90;;;35.90;;
16320;SDS011;8269;50.990;4.494;2022-11-20T10:08:59;88.13;;;37.50;;
16320;SDS011;8269;50.990;4.494;2022-11-20T10:12:06;89.83;;;36.50;;
16320;SDS011;8269;50.990;4.494;2022-11-20T10:14:42;88.33;;;37.57;;
16320;SDS011;8269;50.990;4.494;2022-11-20T10:26:11;73.77;;;34.10;;
16320;SDS011;8269;50.990;4.494;2022-11-20T10:31:12;81.43;;;35.00;;
16320;SDS011;8269;50.990;4.494;2022-11-20T10:33:46;73.80;;;34.60;;
16320;SDS011;8269;50.990;4.494;2022-11-20T10:36:19;78.50;;;34.73;;
16320;SDS011;8269;50.990;4.494;2022-11-20T10:38:50;73.57;;;34.50;;
16320;SDS011;8269;50.990;4.494;2022-11-20T10:41:25;79.50;;;35.10;;
16320;SDS011;8269;50.990;4.494;2022-11-20T10:44:38;77.47;;;36.03;;
16320;SDS011;8269;50.990;4.494;2022-11-20T10:47:04;78.20;;;34.60;;
16320;SDS011;8269;50.990;4.494;2022-11-20T10:49:35;71.67;;;33.70;;
16320;SDS011;8269;50.990;4.494;2022-11-20T10:57:54;61.00;;;31.87;;
16320;SDS011;8269;50.990;4.494;2022-11-20T11:00:30;58.67;;;30.10;;
16320;SDS011;8269;50.990;4.494;2022-11-20T11:02:57;61.47;;;32.03;;
16320;SDS011;8269;50.990;4.494;2022-11-20T11:05:36;55.83;;;30.80;;
16320;SDS011;8269;50.990;4.494;2022-11-20T11:08:07;55.43;;;29.40;;
16320;SDS011;8269;50.990;4.494;2022-11-20T11:10:53;51.70;;;28.50;;
16320;SDS011;8269;50.990;4.494;2022-11-20T11:13:26;46.30;;;26.27;;
16320;SDS011;8269;50.990;4.494;2022-11-20T11:15:53;47.97;;;27.30;;
16320;SDS011;8269;50.990;4.494;2022-11-20T11:18:26;43.30;;;25.93;;
16320;SDS011;8269;50.990;4.494;2022-11-20T11:20:55;40.17;;;23.93;;
16320;SDS011;8269;50.990;4.494;2022-11-20T11:26:01;42.03;;;23.67;;
16320;SDS011;8269;50.990;4.494;2022-11-20T11:28:29;37.63;;;23.50;;
16320;SDS011;8269;50.990;4.494;2022-11-20T11:30:55;35.70;;;22.17;;
16320;SDS011;8269;50.990;4.494;2022-11-20T11:33:22;33.23;;;21.00;;
16320;SDS011;8269;50.990;4.494;2022-11-20T11:36:00;30.27;;;17.17;;
16320;SDS011;8269;50.990;4.494;2022-11-20T11:40:56;21.10;;;12.23;;
16320;SDS011;8269;50.990;4.494;2022-11-20T11:43:24;18.97;;;11.07;;
16320;SDS011;8269;50.990;4.494;2022-11-20T11:46:24;18.60;;;8.83;;
16320;SDS011;8269;50.990;4.494;2022-11-20T11:48:54;17.07;;;7.13;;
16320;SDS011;8269;50.990;4.494;2022-11-20T12:05:17;11.13;;;5.80;;
16320;SDS011;8269;50.990;4.494;2022-11-20T12:07:52;7.40;;;4.40;;
16320;SDS011;8269;50.990;4.494;2022-11-20T12:10:28;10.97;;;4.67;;
16320;SDS011;8269;50.990;4.494;2022-11-20T12:13:09;12.80;;;4.43;;
16320;SDS011;8269;50.990;4.494;2022-11-20T12:15:37;9.00;;;3.80;;
16320;SDS011;8269;50.990;4.494;2022-11-20T12:18:10;11.23;;;4.10;;
16320;SDS011;8269;50.990;4.494;2022-11-20T12:20:43;8.63;;;4.17;;
16320;SDS011;8269;50.990;4.494;2022-11-20T12:23:22;8.30;;;4.17;;
16320;SDS011;8269;50.990;4.494;2022-11-20T12:26:05;9.00;;;3.90;;
16320;SDS011;8269;50.990;4.494;2022-11-20T12:29:02;10.30;;;4.27;;
16320;SDS011;8269;50.990;4.494;2022-11-20T12:31:45;9.63;;;4.60;;
16320;SDS011;8269;50.990;4.494;2022-11-20T12:40:20;14.73;;;4.50;;
16320;SDS011;8269;50.990;4.494;2022-11-20T12:59:49;11.80;;;4.60;;
16320;SDS011;8269;50.990;4.494;2022-11-20T13:05:21;14.10;;;6.00;;
16320;SDS011;8269;50.990;4.494;2022-11-20T13:08:01;9.77;;;5.20;;
16320;SDS011;8269;50.990;4.494;2022-11-20T13:10:37;16.37;;;8.53;;
16320;SDS011;8269;50.990;4.494;2022-11-20T13:13:23;9.53;;;5.93;;
16320;SDS011;8269;50.990;4.494;2022-11-20T13:16:19;8.83;;;5.53;;
16320;SDS011;8269;50.990;4.494;2022-11-20T13:18:51;12.90;;;5.30;;
16320;SDS011;8269;50.990;4.494;2022-11-20T13:21:17;9.77;;;6.50;;
16320;SDS011;8269;50.990;4.494;2022-11-20T13:23:45;9.73;;;6.77;;
16320;SDS011;8269;50.990;4.494;2022-11-20T13:26:21;12.37;;;6.30;;
16320;SDS011;8269;50.990;4.494;2022-11-20T13:28:59;11.30;;;5.43;;
16320;SDS011;8269;50.990;4.494;2022-11-20T13:31:32;11.23;;;5.90;;
16320;SDS011;8269;50.990;4.494;2022-11-20T13:33:59;8.23;;;5.20;;
16320;SDS011;8269;50.990;4.494;2022-11-20T13:36:31;13.33;;;6.80;;
16320;SDS011;8269;50.990;4.494;2022-11-20T13:38:57;16.23;;;7.70;;
16320;SDS011;8269;50.990;4.494;2022-11-20T13:41:33;8.47;;;5.43;;
16320;SDS011;8269;50.990;4.494;2022-11-20T13:46:46;13.63;;;5.60;;
16320;SDS011;8269;50.990;4.494;2022-11-20T13:49:22;9.73;;;5.20;;
16320;SDS011;8269;50.990;4.494;2022-11-20T14:00:48;10.23;;;5.30;;
16320;SDS011;8269;50.990;4.494;2022-11-20T14:03:36;8.50;;;5.57;;
16320;SDS011;8269;50.990;4.494;2022-11-20T14:06:11;12.17;;;5.63;;
16320;SDS011;8269;50.990;4.494;2022-11-20T14:08:47;7.93;;;5.20;;
16320;SDS011;8269;50.990;4.494;2022-11-20T14:16:28;8.87;;;5.90;;
16320;SDS011;8269;50.990;4.494;2022-11-20T14:18:56;9.20;;;4.90;;
16320;SDS011;8269;50.990;4.494;2022-11-20T14:21:41;10.27;;;5.37;;
16320;SDS011;8269;50.990;4.494;2022-11-20T14:24:09;10.00;;;5.33;;
16320;SDS011;8269;50.990;4.494;2022-11-20T14:26:37;6.07;;;4.47;;
16320;SDS011;8269;50.990;4.494;2022-11-20T14:29:12;7.60;;;4.83;;
16320;SDS011;8269;50.990;4.494;2022-11-20T14:31:39;6.40;;;3.90;;
16320;SDS011;8269;50.990;4.494;2022-11-20T14:34:12;7.23;;;4.50;;
16320;SDS011;8269;50.990;4.494;2022-11-20T14:36:45;6.50;;;3.73;;
16320;SDS011;8269;50.990;4.494;2022-11-20T14:39:11;6.43;;;4.20;;
16320;SDS011;8269;50.990;4.494;2022-11-20T14:41:50;7.43;;;4.50;;
16320;SDS011;8269;50.990;4.494;2022-11-20T14:44:17;10.43;;;5.93;;
16320;SDS011;8269;50.990;4.494;2022-11-20T14:46:45;8.33;;;4.90;;
16320;SDS011;8269;50.990;4.494;2022-11-20T14:49:10;7.53;;;5.67;;
16320;SDS011;8269;50.990;4.494;2022-11-20T14:51:37;8.33;;;5.77;;
16320;SDS011;8269;50.990;4.494;2022-11-20T14:56:39;6.27;;;4.80;;
16320;SDS011;8269;50.990;4.494;2022-11-20T14:59:04;7.83;;;4.97;;
16320;SDS011;8269;50.990;4.494;2022-11-20T15:01:32;9.30;;;5.47;;
16320;SDS011;8269;50.990;4.494;2022-11-20T15:04:05;9.23;;;5.97;;
16320;SDS011;8269;50.990;4.494;2022-11-20T15:06:34;8.07;;;6.20;;
16320;SDS011;8269;50.990;4.494;2022-11-20T15:09:01;9.43;;;5.83;;
16320;SDS011;8269;50.990;4.494;2022-11-20T15:11:32;8.10;;;6.77;;
16320;SDS011;8269;50.990;4.494;2022-11-20T15:14:04;9.77;;;6.90;;
16320;SDS011;8269;50.990;4.494;2022-11-20T15:16:31;11.67;;;7.97;;
16320;SDS011;8269;50.990;4.494;2022-11-20T15:18:58;9.50;;;8.00;;
16320;SDS011;8269;50.990;4.494;2022-11-20T15:21:24;12.03;;;8.00;;
16320;SDS011;8269;50.990;4.494;2022-11-20T15:23:50;9.43;;;8.50;;
16320;SDS011;8269;50.990;4.494;2022-11-20T15:26:26;11.03;;;7.57;;
16320;SDS011;8269;50.990;4.494;2022-11-20T15:28:53;10.73;;;8.23;;
16320;SDS011;8269;50.990;4.494;2022-11-20T15:31:20;11.63;;;8.00;;
16320;SDS011;8269;50.990;4.494;2022-11-20T15:33:47;9.20;;;7.37;;
16320;SDS011;8269;50.990;4.494;2022-11-20T15:36:14;10.17;;;7.97;;
16320;SDS011;8269;50.990;4.494;2022-11-20T15:38:39;10.20;;;7.80;;
16320;SDS011;8269;50.990;4.494;2022-11-20T15:41:05;9.70;;;7.80;;
16320;SDS011;8269;50.990;4.494;2022-11-20T15:43:31;9.57;;;7.93;;
16320;SDS011;8269;50.990;4.494;2022-11-20T15:46:02;10.43;;;7.93;;
16320;SDS011;8269;50.990;4.494;2022-11-20T15:48:32;11.63;;;8.50;;
16320;SDS011;8269;50.990;4.494;2022-11-20T15:51:21;13.30;;;8.90;;
16320;SDS011;8269;50.990;4.494;2022-11-20T15:53:52;13.17;;;9.27;;
16320;SDS011;8269;50.990;4.494;2022-11-20T15:56:17;16.43;;;10.90;;
16320;SDS011;8269;50.990;4.494;2022-11-20T15:58:43;13.43;;;10.03;;
16320;SDS011;8269;50.990;4.494;2022-11-20T16:01:13;16.20;;;12.63;;
16320;SDS011;8269;50.990;4.494;2022-11-20T16:03:49;14.10;;;8.90;;
16320;SDS011;8269;50.990;4.494;2022-11-20T16:06:15;12.83;;;8.90;;
16320;SDS011;8269;50.990;4.494;2022-11-20T16:08:43;11.67;;;8.20;;
16320;SDS011;8269;50.990;4.494;2022-11-20T16:11:14;13.37;;;8.23;;
16320;SDS011;8269;50.990;4.494;2022-11-20T16:13:41;17.40;;;9.30;;
16320;SDS011;8269;50.990;4.494;2022-11-20T16:16:46;14.13;;;8.50;;
16320;SDS011;8269;50.990;4.494;2022-11-20T16:19:13;16.13;;;8.63;;
16320;SDS011;8269;50.990;4.494;2022-11-20T16:21:39;13.63;;;7.47;;
16320;SDS011;8269;50.990;4.494;2022-11-20T16:24:06;19.87;;;7.67;;
16320;SDS011;8269;50.990;4.494;2022-11-20T16:26:34;17.93;;;7.73;;